createdAt,value
2017-05-19T00:00:05.078Z,18.94
2017-05-19T00:00:45.564Z,18.9
2017-05-19T00:01:25.990Z,18.94
2017-05-19T00:02:07.081Z,18.95
2017-05-19T00:02:48.815Z,18.92
2017-05-19T00:03:29.596Z,18.99
2017-05-19T00:04:09.787Z,19.04
2017-05-19T00:04:50.441Z,19
2017-05-19T00:05:30.922Z,18.92
2017-05-19T00:06:11.289Z,18.95
2017-05-19T00:06:51.868Z,18.98
2017-05-19T00:07:32.301Z,19
2017-05-19T00:08:12.841Z,19.04
2017-05-19T00:08:53.478Z,19.1
2017-05-19T00:09:35.578Z,19.11
2017-05-19T00:10:22.229Z,19.06
2017-05-19T00:11:02.703Z,19.14
2017-05-19T00:11:43.224Z,19.18
2017-05-19T00:12:23.608Z,19.19
2017-05-19T00:13:04.111Z,19.23
2017-05-19T00:13:44.668Z,19.14
2017-05-19T00:14:25.143Z,19.16
2017-05-19T00:15:05.622Z,19.19
2017-05-19T00:15:46.011Z,19.22
2017-05-19T00:16:26.549Z,19.21
2017-05-19T00:17:06.973Z,19.22
2017-05-19T00:17:47.349Z,19.23
2017-05-19T00:18:27.875Z,19.23
2017-05-19T00:19:08.967Z,19.31
2017-05-19T00:19:49.434Z,19.25
2017-05-19T00:20:30.069Z,19.19
2017-05-19T00:21:10.308Z,19.21
2017-05-19T00:21:51.905Z,19.23
2017-05-19T00:22:34.231Z,19.23
2017-05-19T00:23:13.862Z,19.21
2017-05-19T00:23:54.349Z,19.18
2017-05-19T00:24:35.009Z,19.07
2017-05-19T00:25:15.677Z,19.18
2017-05-19T00:25:57.645Z,19.21
2017-05-19T00:26:38.564Z,19.11
2017-05-19T00:27:20.800Z,19.13
2017-05-19T00:28:01.122Z,19.19
2017-05-19T00:28:43.825Z,19.22
2017-05-19T00:29:23.713Z,19.14
2017-05-19T00:30:04.161Z,19.08
2017-05-19T00:30:44.628Z,19.18
2017-05-19T00:31:25.128Z,19.23
2017-05-19T00:32:05.488Z,19.16
2017-05-19T00:32:45.933Z,19.21
2017-05-19T00:33:26.421Z,19.18
2017-05-19T00:34:07.018Z,19.21
2017-05-19T00:34:47.633Z,19.18
2017-05-19T00:35:28.023Z,19.14
2017-05-19T00:36:08.502Z,19.11
2017-05-19T00:36:49.108Z,19.07
2017-05-19T00:37:29.472Z,19.08
2017-05-19T00:38:09.949Z,19.02
2017-05-19T00:38:50.319Z,19.08
2017-05-19T00:39:30.786Z,19.1
2017-05-19T00:40:11.221Z,19.08
2017-05-19T00:40:51.822Z,19.18
2017-05-19T00:41:32.273Z,19.1
2017-05-19T00:42:12.742Z,19.02
2017-05-19T00:42:53.216Z,19.07
2017-05-19T00:43:33.693Z,19.06
2017-05-19T00:44:14.215Z,19.06
2017-05-19T00:44:54.646Z,18.99
2017-05-19T00:45:35.071Z,18.88
2017-05-19T00:46:15.511Z,18.98
2017-05-19T00:46:55.950Z,18.98
2017-05-19T00:47:36.443Z,18.94
2017-05-19T00:48:16.882Z,18.85
2017-05-19T00:48:57.299Z,18.8
2017-05-19T00:49:37.738Z,18.85
2017-05-19T00:50:18.174Z,18.8
2017-05-19T00:50:58.675Z,18.8
2017-05-19T00:51:39.267Z,18.69
2017-05-19T00:52:19.720Z,18.63
2017-05-19T00:53:00.186Z,18.58
2017-05-19T00:53:40.627Z,18.55
2017-05-19T00:54:22.183Z,18.45
2017-05-19T00:55:02.705Z,18.39
2017-05-19T00:55:48.014Z,18.36
2017-05-19T00:56:30.656Z,18.21
2017-05-19T00:58:19.586Z,18.11
2017-05-19T00:59:00.067Z,17.97
2017-05-19T00:59:40.528Z,17.93
2017-05-19T01:00:20.990Z,17.95
2017-05-19T01:01:01.424Z,17.9
2017-05-19T01:01:42.782Z,17.9
2017-05-19T01:02:24.229Z,17.82
2017-05-19T01:03:04.705Z,17.82
2017-05-19T01:03:45.155Z,17.81
2017-05-19T01:04:26.234Z,17.87
2017-05-19T01:05:06.671Z,17.81
2017-05-19T01:05:47.127Z,17.63
2017-05-19T01:06:27.541Z,17.7
2017-05-19T01:08:07.025Z,17.74
2017-05-19T01:08:47.824Z,17.66
2017-05-19T01:09:28.230Z,17.68
2017-05-19T01:10:08.710Z,17.59
2017-05-19T01:10:49.117Z,17.62
2017-05-19T01:11:29.735Z,17.64
2017-05-19T01:12:10.281Z,17.66
2017-05-19T01:12:50.709Z,17.62
2017-05-19T01:13:31.193Z,17.63
2017-05-19T01:14:11.606Z,17.51
2017-05-19T01:14:52.144Z,17.55
2017-05-19T01:15:32.542Z,17.52
2017-05-19T01:16:13.016Z,17.43
2017-05-19T01:16:53.505Z,17.48
2017-05-19T01:17:34.079Z,17.44
2017-05-19T01:18:14.500Z,17.48
2017-05-19T01:18:54.908Z,17.51
2017-05-19T01:19:35.357Z,17.46
2017-05-19T01:20:15.768Z,17.44
2017-05-19T01:20:56.217Z,17.44
2017-05-19T01:21:36.722Z,17.49
2017-05-19T01:22:17.165Z,17.34
2017-05-19T01:22:57.634Z,17.28
2017-05-19T01:23:38.125Z,17.28
2017-05-19T01:24:18.570Z,17.34
2017-05-19T01:24:59.046Z,17.34
2017-05-19T01:25:39.533Z,17.3
2017-05-19T01:26:20.033Z,17.22
2017-05-19T01:27:00.468Z,17.22
2017-05-19T01:27:40.958Z,17.25
2017-05-19T01:28:21.395Z,17.18
2017-05-19T01:29:01.868Z,17.25
2017-05-19T01:29:42.318Z,17.26
2017-05-19T01:30:22.790Z,17.21
2017-05-19T01:31:03.250Z,17.21
2017-05-19T01:31:43.766Z,17.16
2017-05-19T01:32:24.247Z,17.11
2017-05-19T01:33:04.757Z,17.14
2017-05-19T01:33:45.177Z,17.01
2017-05-19T01:34:25.667Z,16.93
2017-05-19T01:35:06.132Z,16.93
2017-05-19T01:35:46.594Z,16.86
2017-05-19T01:36:27.051Z,16.79
2017-05-19T01:37:07.464Z,16.82
2017-05-19T01:37:47.926Z,16.85
2017-05-19T01:38:28.446Z,16.83
2017-05-19T01:39:08.882Z,16.85
2017-05-19T01:39:49.320Z,16.83
2017-05-19T01:40:29.778Z,16.79
2017-05-19T01:41:10.222Z,16.73
2017-05-19T01:41:50.759Z,16.78
2017-05-19T01:42:31.174Z,16.73
2017-05-19T01:43:11.606Z,16.81
2017-05-19T01:43:52.054Z,16.83
2017-05-19T01:44:32.513Z,16.86
2017-05-19T01:45:13.027Z,16.83
2017-05-19T01:45:53.505Z,16.81
2017-05-19T01:46:34.168Z,16.88
2017-05-19T01:47:14.607Z,16.82
2017-05-19T01:47:55.091Z,16.82
2017-05-19T01:48:35.496Z,16.86
2017-05-19T01:49:15.958Z,16.96
2017-05-19T01:49:56.404Z,16.93
2017-05-19T01:50:36.903Z,16.91
2017-05-19T01:51:17.356Z,16.89
2017-05-19T01:51:57.803Z,16.89
2017-05-19T01:52:38.305Z,17
2017-05-19T01:53:18.744Z,17
2017-05-19T01:53:59.178Z,17.01
2017-05-19T01:54:39.615Z,17
2017-05-19T01:55:20.073Z,16.97
2017-05-19T01:56:00.563Z,17.04
2017-05-19T01:56:41.089Z,16.91
2017-05-19T01:57:21.563Z,16.93
2017-05-19T01:58:02.044Z,16.97
2017-05-19T01:58:42.521Z,16.79
2017-05-19T01:59:22.908Z,16.86
2017-05-19T02:00:03.384Z,16.93
2017-05-19T02:00:43.881Z,16.97
2017-05-19T02:01:24.382Z,17.04
2017-05-19T02:02:04.826Z,16.98
2017-05-19T02:02:45.297Z,17.07
2017-05-19T02:03:25.736Z,17.11
2017-05-19T02:04:06.154Z,17.01
2017-05-19T02:04:46.597Z,16.93
2017-05-19T02:05:27.033Z,17.01
2017-05-19T02:06:07.546Z,17.08
2017-05-19T02:06:47.962Z,17.15
2017-05-19T02:07:28.458Z,17.06
2017-05-19T02:08:08.894Z,17.07
2017-05-19T02:08:49.339Z,17.14
2017-05-19T02:09:29.810Z,17.06
2017-05-19T02:10:10.251Z,17.06
2017-05-19T02:10:50.685Z,17.03
2017-05-19T02:11:31.150Z,17.01
2017-05-19T02:12:11.674Z,17.03
2017-05-19T02:12:52.066Z,17.03
2017-05-19T02:13:32.486Z,16.89
2017-05-19T02:14:12.930Z,16.85
2017-05-19T02:14:53.368Z,16.96
2017-05-19T02:15:33.860Z,16.96
2017-05-19T02:16:14.357Z,16.91
2017-05-19T02:16:54.774Z,16.89
2017-05-19T02:17:35.249Z,17.01
2017-05-19T02:18:15.686Z,16.97
2017-05-19T02:18:56.152Z,16.93
2017-05-19T02:19:36.600Z,16.89
2017-05-19T02:20:17.066Z,16.89
2017-05-19T02:20:57.525Z,16.89
2017-05-19T02:21:38.099Z,16.93
2017-05-19T02:22:18.566Z,16.93
2017-05-19T02:22:59.029Z,16.89
2017-05-19T02:23:39.555Z,16.86
2017-05-19T02:24:19.948Z,16.94
2017-05-19T02:25:00.434Z,16.96
2017-05-19T02:25:40.898Z,17
2017-05-19T02:26:21.362Z,17
2017-05-19T02:27:01.784Z,16.98
2017-05-19T02:27:42.193Z,17.01
2017-05-19T02:28:22.663Z,17.01
2017-05-19T02:29:03.125Z,17.08
2017-05-19T02:29:43.598Z,17.14
2017-05-19T02:30:24.028Z,17.11
2017-05-19T02:31:04.428Z,17.06
2017-05-19T02:31:44.967Z,17.15
2017-05-19T02:32:25.390Z,17.07
2017-05-19T02:33:05.833Z,17.03
2017-05-19T02:33:46.277Z,17
2017-05-19T02:34:26.773Z,16.91
2017-05-19T02:35:07.195Z,17.06
2017-05-19T02:35:47.616Z,17
2017-05-19T02:36:28.062Z,16.97
2017-05-19T02:37:09.068Z,16.93
2017-05-19T02:37:49.545Z,16.93
2017-05-19T02:38:30.030Z,16.89
2017-05-19T02:39:10.493Z,16.96
2017-05-19T02:39:50.854Z,16.97
2017-05-19T02:40:31.333Z,16.94
2017-05-19T02:41:11.836Z,17.04
2017-05-19T02:41:52.300Z,17.06
2017-05-19T02:42:32.747Z,16.98
2017-05-19T02:43:13.177Z,17.03
2017-05-19T02:43:53.667Z,17.12
2017-05-19T02:44:34.139Z,17.08
2017-05-19T02:45:14.598Z,17.16
2017-05-19T02:45:55.074Z,17.08
2017-05-19T02:46:35.650Z,17.14
2017-05-19T02:47:16.104Z,17.04
2017-05-19T02:47:56.550Z,17
2017-05-19T02:48:37.038Z,17.04
2017-05-19T02:49:17.459Z,17.08
2017-05-19T02:49:57.945Z,17.14
2017-05-19T02:50:38.398Z,17.11
2017-05-19T02:51:18.812Z,17.11
2017-05-19T02:51:59.322Z,17.14
2017-05-19T02:52:39.809Z,17.12
2017-05-19T02:53:20.239Z,17.08
2017-05-19T02:54:00.675Z,17.19
2017-05-19T02:54:41.118Z,17.14
2017-05-19T02:55:21.573Z,17.12
2017-05-19T02:56:02.060Z,17.11
2017-05-19T02:56:42.497Z,17.06
2017-05-19T02:57:22.863Z,17.03
2017-05-19T02:58:03.330Z,17
2017-05-19T02:58:43.755Z,17.04
2017-05-19T02:59:24.256Z,17.06
2017-05-19T03:00:04.758Z,17.08
2017-05-19T03:00:45.108Z,17.01
2017-05-19T03:01:25.598Z,17.06
2017-05-19T03:02:06.088Z,17.04
2017-05-19T03:02:46.493Z,17.07
2017-05-19T03:03:26.962Z,17.15
2017-05-19T03:04:07.466Z,17.08
2017-05-19T03:04:47.895Z,16.98
2017-05-19T03:05:28.354Z,16.94
2017-05-19T03:06:08.736Z,17.03
2017-05-19T03:06:49.295Z,16.97
2017-05-19T03:07:29.757Z,17.01
2017-05-19T03:08:10.170Z,17.06
2017-05-19T03:08:50.671Z,17.04
2017-05-19T03:09:31.100Z,17.07
2017-05-19T03:10:11.544Z,17.07
2017-05-19T03:10:52.015Z,17.03
2017-05-19T03:11:32.484Z,17.07
2017-05-19T03:12:13.053Z,17.08
2017-05-19T03:12:53.467Z,17.12
2017-05-19T03:13:33.842Z,17.16
2017-05-19T03:14:14.401Z,17.18
2017-05-19T03:14:54.777Z,17.08
2017-05-19T03:15:35.230Z,17.06
2017-05-19T03:16:15.705Z,16.91
2017-05-19T03:16:56.104Z,16.89
2017-05-19T03:17:36.521Z,16.86
2017-05-19T03:18:17.171Z,16.97
2017-05-19T03:18:57.593Z,16.86
2017-05-19T03:19:37.944Z,16.93
2017-05-19T03:20:18.448Z,16.86
2017-05-19T03:20:58.801Z,16.89
2017-05-19T03:21:39.333Z,16.85
2017-05-19T03:22:19.863Z,16.89
2017-05-19T03:23:00.383Z,16.94
2017-05-19T03:23:40.794Z,16.97
2017-05-19T03:25:29.166Z,17.06
2017-05-19T03:26:09.491Z,17.14
2017-05-19T03:26:49.968Z,17.15
2017-05-19T03:27:30.484Z,17.07
2017-05-19T03:28:10.989Z,17.11
2017-05-19T03:28:51.604Z,17.18
2017-05-19T03:29:32.092Z,17.18
2017-05-19T03:30:12.525Z,17.12
2017-05-19T03:30:52.995Z,17.15
2017-05-19T03:31:33.467Z,17.18
2017-05-19T03:32:13.890Z,17.18
2017-05-19T03:32:54.412Z,17.21
2017-05-19T03:33:34.862Z,17.28
2017-05-19T03:35:29.877Z,17.3
2017-05-19T03:36:18.282Z,17.08
2017-05-19T03:37:06.723Z,17.19
2017-05-19T03:37:50.355Z,17.23
2017-05-19T03:38:30.847Z,17.21
2017-05-19T03:39:11.282Z,17.16
2017-05-19T03:39:51.802Z,17.22
2017-05-19T03:40:32.284Z,17.28
2017-05-19T03:41:12.600Z,17.26
2017-05-19T03:41:53.304Z,17.28
2017-05-19T03:42:33.680Z,17.25
2017-05-19T03:43:14.143Z,17.23
2017-05-19T03:43:54.569Z,17.21
2017-05-19T03:44:35.471Z,17.3
2017-05-19T03:45:16.064Z,17.23
2017-05-19T03:45:56.652Z,17.21
2017-05-19T03:46:37.220Z,17.25
2017-05-19T03:47:17.768Z,17.19
2017-05-19T03:47:58.190Z,17.26
2017-05-19T03:48:39.017Z,17.3
2017-05-19T03:49:19.648Z,17.26
2017-05-19T03:49:59.978Z,17.38
2017-05-19T03:50:40.469Z,17.41
2017-05-19T03:51:20.924Z,17.41
2017-05-19T03:52:01.480Z,17.33
2017-05-19T03:52:41.859Z,17.37
2017-05-19T03:53:22.385Z,17.38
2017-05-19T03:54:02.931Z,17.37
2017-05-19T03:54:43.480Z,17.36
2017-05-19T03:55:23.994Z,17.4
2017-05-19T03:56:04.605Z,17.51
2017-05-19T03:56:45.245Z,17.44
2017-05-19T03:57:25.884Z,17.44
2017-05-19T03:58:06.240Z,17.43
2017-05-19T03:58:46.762Z,17.46
2017-05-19T03:59:27.321Z,17.48
2017-05-19T04:00:07.767Z,17.49
2017-05-19T04:00:49.272Z,17.49
2017-05-19T04:01:29.957Z,17.41
2017-05-19T04:02:10.333Z,17.54
2017-05-19T04:02:51.542Z,17.46
2017-05-19T04:03:31.946Z,17.54
2017-05-19T04:04:12.513Z,17.46
2017-05-19T04:04:52.925Z,17.58
2017-05-19T04:05:33.478Z,17.54
2017-05-19T04:06:14.202Z,17.51
2017-05-19T04:06:54.672Z,17.55
2017-05-19T04:07:35.439Z,17.56
2017-05-19T04:08:15.934Z,17.51
2017-05-19T04:08:56.962Z,17.59
2017-05-19T04:09:38.301Z,17.55
2017-05-19T04:10:19.084Z,17.54
2017-05-19T04:10:59.788Z,17.55
2017-05-19T04:11:40.235Z,17.54
2017-05-19T04:12:20.796Z,17.49
2017-05-19T04:13:01.432Z,17.55
2017-05-19T04:13:41.952Z,17.52
2017-05-19T04:14:22.368Z,17.51
2017-05-19T04:15:03.022Z,17.62
2017-05-19T04:15:43.625Z,17.64
2017-05-19T04:16:24.044Z,17.56
2017-05-19T04:17:04.547Z,17.68
2017-05-19T04:17:45.104Z,17.68
2017-05-19T04:18:25.585Z,17.71
2017-05-19T04:19:06.177Z,17.68
2017-05-19T04:19:46.506Z,17.62
2017-05-19T04:20:27.121Z,17.55
2017-05-19T04:21:07.710Z,17.55
2017-05-19T04:21:49.169Z,17.68
2017-05-19T04:22:29.707Z,17.66
2017-05-19T04:23:10.298Z,17.71
2017-05-19T04:23:50.986Z,17.75
2017-05-19T04:24:31.479Z,17.71
2017-05-19T04:25:11.872Z,17.7
2017-05-19T04:25:52.751Z,17.74
2017-05-19T04:26:33.769Z,17.64
2017-05-19T04:27:14.307Z,17.71
2017-05-19T04:27:54.769Z,17.72
2017-05-19T04:28:36.266Z,17.7
2017-05-19T04:29:16.838Z,17.64
2017-05-19T04:29:57.299Z,17.68
2017-05-19T04:30:37.743Z,17.66
2017-05-19T04:31:18.229Z,17.7
2017-05-19T04:31:58.653Z,17.72
2017-05-19T04:32:39.280Z,17.66
2017-05-19T04:33:19.732Z,17.66
2017-05-19T04:34:00.231Z,17.58
2017-05-19T04:34:40.720Z,17.7
2017-05-19T04:35:21.414Z,17.66
2017-05-19T04:36:02.089Z,17.62
2017-05-19T04:36:42.634Z,17.68
2017-05-19T04:37:23.207Z,17.59
2017-05-19T04:38:04.655Z,17.58
2017-05-19T04:38:45.032Z,17.49
2017-05-19T04:39:26.650Z,17.59
2017-05-19T04:40:07.009Z,17.52
2017-05-19T04:40:47.645Z,17.55
2017-05-19T04:41:28.157Z,17.63
2017-05-19T04:42:08.650Z,17.56
2017-05-19T04:42:49.101Z,17.54
2017-05-19T04:43:30.424Z,17.51
2017-05-19T04:44:10.992Z,17.68
2017-05-19T04:44:51.659Z,17.58
2017-05-19T04:45:32.078Z,17.68
2017-05-19T04:46:12.527Z,17.66
2017-05-19T04:46:53.105Z,17.62
2017-05-19T04:47:33.545Z,17.7
2017-05-19T04:48:14.066Z,17.66
2017-05-19T04:50:03.715Z,17.71
2017-05-19T04:50:52.133Z,17.64
2017-05-19T04:51:40.689Z,17.66
2017-05-19T04:52:29.536Z,17.7
2017-05-19T04:53:17.776Z,17.68
2017-05-19T04:54:07.103Z,17.68
2017-05-19T04:54:56.074Z,17.74
2017-05-19T04:55:44.569Z,17.84
2017-05-19T04:56:33.071Z,17.77
2017-05-19T04:57:20.349Z,17.81
2017-05-19T04:58:00.565Z,17.86
2017-05-19T04:58:41.035Z,17.82
2017-05-19T04:59:21.506Z,17.79
2017-05-19T05:00:01.960Z,17.78
2017-05-19T05:00:42.357Z,17.78
2017-05-19T05:01:22.742Z,17.84
2017-05-19T05:02:03.191Z,17.79
2017-05-19T05:02:43.718Z,17.82
2017-05-19T05:03:24.164Z,17.84
2017-05-19T05:04:04.626Z,17.84
2017-05-19T05:04:45.058Z,17.79
2017-05-19T05:05:25.525Z,17.86
2017-05-19T05:06:05.958Z,17.87
2017-05-19T05:06:46.402Z,17.79
2017-05-19T05:07:26.845Z,17.86
2017-05-19T05:08:07.286Z,17.82
2017-05-19T05:08:47.786Z,17.79
2017-05-19T05:09:28.239Z,17.77
2017-05-19T05:10:08.684Z,17.75
2017-05-19T05:10:49.163Z,17.81
2017-05-19T05:11:29.655Z,17.75
2017-05-19T05:12:10.104Z,17.79
2017-05-19T05:12:50.536Z,17.82
2017-05-19T05:13:30.990Z,17.82
2017-05-19T05:14:11.422Z,17.81
2017-05-19T05:14:51.898Z,17.75
2017-05-19T05:15:32.381Z,17.82
2017-05-19T05:16:13.002Z,17.81
2017-05-19T05:16:53.539Z,17.82
2017-05-19T05:17:34.018Z,17.84
2017-05-19T05:18:14.492Z,17.82
2017-05-19T05:18:54.946Z,17.92
2017-05-19T05:19:35.391Z,17.96
2017-05-19T05:20:15.864Z,17.96
2017-05-19T05:20:56.311Z,17.99
2017-05-19T05:21:36.921Z,17.93
2017-05-19T05:22:17.354Z,17.96
2017-05-19T05:22:57.801Z,17.9
2017-05-19T05:23:38.315Z,17.89
2017-05-19T05:24:18.771Z,17.9
2017-05-19T05:24:59.238Z,17.89
2017-05-19T05:25:39.701Z,17.9
2017-05-19T05:26:20.188Z,17.95
2017-05-19T05:27:00.639Z,17.82
2017-05-19T05:27:41.063Z,17.87
2017-05-19T05:28:21.555Z,17.86
2017-05-19T05:29:02.017Z,17.84
2017-05-19T05:29:42.475Z,17.87
2017-05-19T05:30:22.995Z,17.92
2017-05-19T05:31:03.395Z,17.97
2017-05-19T05:31:43.951Z,17.97
2017-05-19T05:32:24.394Z,17.89
2017-05-19T05:33:04.945Z,17.9
2017-05-19T05:33:45.926Z,17.92
2017-05-19T05:35:58.694Z,17.56
2017-05-19T05:36:39.288Z,17.52
2017-05-19T05:37:20.567Z,17.44
2017-05-19T05:38:01.043Z,17.51
2017-05-19T05:38:41.579Z,17.41
2017-05-19T05:39:21.991Z,17.37
2017-05-19T05:41:14.872Z,17.26
2017-05-19T05:41:55.227Z,17.21
2017-05-19T05:42:35.689Z,17.22
2017-05-19T05:43:16.162Z,17.18
2017-05-19T05:43:56.594Z,16.98
2017-05-19T05:44:37.074Z,16.88
2017-05-19T05:45:17.601Z,16.93
2017-05-19T05:45:58.012Z,16.89
2017-05-19T05:46:38.509Z,16.96
2017-05-19T05:48:16.063Z,16.7
2017-05-19T05:48:56.328Z,16.75
2017-05-19T05:49:36.790Z,16.78
2017-05-19T05:50:17.265Z,16.82
2017-05-19T05:50:57.708Z,16.75
2017-05-19T05:51:38.219Z,16.73
2017-05-19T05:52:18.689Z,16.82
2017-05-19T05:52:59.160Z,16.91
2017-05-19T05:53:39.591Z,16.93
2017-05-19T05:54:20.041Z,16.89
2017-05-19T05:55:00.515Z,16.88
2017-05-19T05:55:40.983Z,16.79
2017-05-19T05:56:21.482Z,16.86
2017-05-19T05:57:01.910Z,16.7
2017-05-19T05:59:14.811Z,16.7
2017-05-19T05:59:55.138Z,16.78
2017-05-19T06:00:35.589Z,16.75
2017-05-19T06:01:16.212Z,16.71
2017-05-19T06:01:56.792Z,16.63
2017-05-19T06:02:37.432Z,16.6
2017-05-19T06:03:17.984Z,16.63
2017-05-19T06:03:58.509Z,16.52
2017-05-19T06:04:38.975Z,16.53
2017-05-19T06:05:19.462Z,16.53
2017-05-19T06:05:59.933Z,16.42
2017-05-19T06:06:40.422Z,16.43
2017-05-19T06:07:20.899Z,16.38
2017-05-19T06:08:01.326Z,16.27
2017-05-19T06:08:41.800Z,16.33
2017-05-19T06:09:22.305Z,16.45
2017-05-19T06:10:02.772Z,16.46
2017-05-19T06:10:43.208Z,16.41
2017-05-19T06:11:23.692Z,16.45
2017-05-19T06:12:04.148Z,16.38
2017-05-19T06:12:44.644Z,16.35
2017-05-19T06:13:25.087Z,16.33
2017-05-19T06:14:05.542Z,16.21
2017-05-19T06:14:46.005Z,16.25
2017-05-19T06:15:26.471Z,16.04
2017-05-19T06:16:06.920Z,15.92
2017-05-19T06:16:47.429Z,15.93
2017-05-19T06:17:27.887Z,15.84
2017-05-19T06:18:08.367Z,15.84
2017-05-19T06:18:48.826Z,15.8
2017-05-19T06:19:29.282Z,15.82
2017-05-19T06:20:09.724Z,15.82
2017-05-19T06:20:50.198Z,15.76
2017-05-19T06:21:30.682Z,15.69
2017-05-19T06:22:11.184Z,15.74
2017-05-19T06:22:51.639Z,15.65
2017-05-19T06:23:32.094Z,15.64
2017-05-19T06:25:24.666Z,15.78
2017-05-19T06:26:05.153Z,15.74
2017-05-19T06:26:45.620Z,15.65
2017-05-19T06:27:26.647Z,15.62
2017-05-19T06:28:07.093Z,15.68
2017-05-19T06:30:20.061Z,15.64
2017-05-19T06:31:00.319Z,15.6
2017-05-19T06:31:40.834Z,15.62
2017-05-19T06:32:21.309Z,15.65
2017-05-19T06:33:01.788Z,15.68
2017-05-19T06:33:42.289Z,15.62
2017-05-19T06:34:22.808Z,15.67
2017-05-19T06:35:03.254Z,15.67
2017-05-19T06:35:43.730Z,15.64
2017-05-19T06:36:24.209Z,15.67
2017-05-19T06:37:04.695Z,15.75
2017-05-19T06:37:45.217Z,15.72
2017-05-19T06:38:25.726Z,15.68
2017-05-19T06:39:06.210Z,15.69
2017-05-19T06:39:46.722Z,15.5
2017-05-19T06:40:27.163Z,15.47
2017-05-19T06:41:07.622Z,15.53
2017-05-19T06:41:48.053Z,15.49
2017-05-19T06:42:28.510Z,15.44
2017-05-19T06:43:08.926Z,15.5
2017-05-19T06:43:49.417Z,15.46
2017-05-19T06:44:29.878Z,15.38
2017-05-19T06:45:10.348Z,15.43
2017-05-19T06:46:47.760Z,15.34
2017-05-19T06:47:28.171Z,15.34
2017-05-19T06:48:08.628Z,15.27
2017-05-19T06:48:49.065Z,15.27
2017-05-19T06:49:29.528Z,15.19
2017-05-19T06:50:10.484Z,15.21
2017-05-19T06:50:51.492Z,15.2
2017-05-19T06:51:31.919Z,15.11
2017-05-19T06:52:12.373Z,15.1
2017-05-19T06:52:52.844Z,15.27
2017-05-19T06:53:35.258Z,15.11
2017-05-19T06:54:15.691Z,15.19
2017-05-19T06:54:56.164Z,15.2
2017-05-19T06:55:36.587Z,15.16
2017-05-19T06:56:17.046Z,14.96
2017-05-19T06:56:57.492Z,15.07
2017-05-19T06:57:37.933Z,15.13
2017-05-19T06:58:18.390Z,15.03
2017-05-19T06:58:58.863Z,15.02
2017-05-19T06:59:39.315Z,15.14
2017-05-19T07:00:19.781Z,15.14
2017-05-19T07:01:57.235Z,15.19
2017-05-19T07:03:54.871Z,15.06
2017-05-19T07:04:35.368Z,15.03
2017-05-19T07:05:15.809Z,15.01
2017-05-19T07:05:56.384Z,14.83
2017-05-19T07:06:36.774Z,14.92
2017-05-19T07:07:17.228Z,14.88
2017-05-19T07:09:09.801Z,14.99
2017-05-19T07:09:50.222Z,14.83
2017-05-19T07:10:30.742Z,14.86
2017-05-19T07:12:43.585Z,14.86
2017-05-19T07:13:24.000Z,14.73
2017-05-19T07:14:04.478Z,14.64
2017-05-19T07:14:44.952Z,14.64
2017-05-19T07:15:25.417Z,14.46
2017-05-19T07:16:05.872Z,14.54
2017-05-19T07:17:53.573Z,14.46
2017-05-19T07:18:34.103Z,14.61
2017-05-19T07:19:14.550Z,14.45
2017-05-19T07:19:55.026Z,14.37
2017-05-19T07:20:35.523Z,14.35
2017-05-19T07:21:16.084Z,14.27
2017-05-19T07:21:56.580Z,14.28
2017-05-19T07:22:37.064Z,14.21
2017-05-19T07:23:17.559Z,14.12
2017-05-19T07:23:58.040Z,14.18
2017-05-19T07:24:38.521Z,14.15
2017-05-19T07:25:19.018Z,14.15
2017-05-19T07:25:59.523Z,14.2
2017-05-19T07:26:40.031Z,14.12
2017-05-19T07:27:20.516Z,14.12
2017-05-19T07:28:01.004Z,14.15
2017-05-19T07:28:41.517Z,14.07
2017-05-19T07:29:22.014Z,14.17
2017-05-19T07:30:02.527Z,14.14
2017-05-19T07:30:43.082Z,14.15
2017-05-19T07:31:23.634Z,14.14
2017-05-19T07:32:04.143Z,14.03
2017-05-19T07:32:44.668Z,14.02
2017-05-19T07:33:25.851Z,13.91
2017-05-19T07:34:06.385Z,13.95
2017-05-19T07:34:46.943Z,13.92
2017-05-19T07:35:27.412Z,13.88
2017-05-19T07:37:20.676Z,13.82
2017-05-19T07:38:01.456Z,13.77
2017-05-19T07:38:41.989Z,13.79
2017-05-19T07:39:22.494Z,13.73
2017-05-19T07:40:03.093Z,13.75
2017-05-19T07:40:43.594Z,13.75
2017-05-19T07:41:24.077Z,13.78
2017-05-19T07:42:04.588Z,13.64
2017-05-19T07:42:45.129Z,13.59
2017-05-19T07:43:25.621Z,13.54
2017-05-19T07:44:06.184Z,13.55
2017-05-19T07:46:04.568Z,13.51
2017-05-19T07:46:44.694Z,13.54
2017-05-19T07:47:25.171Z,13.55
2017-05-19T07:48:05.671Z,13.45
2017-05-19T07:48:46.183Z,13.45
2017-05-19T07:49:26.692Z,13.51
2017-05-19T07:50:07.212Z,13.48
2017-05-19T07:50:47.739Z,13.46
2017-05-19T07:51:28.257Z,13.46
2017-05-19T07:52:08.733Z,13.49
2017-05-19T07:52:49.294Z,13.42
2017-05-19T07:53:29.862Z,13.48
2017-05-19T07:54:10.514Z,13.42
2017-05-19T07:54:51.030Z,13.42
2017-05-19T07:55:31.478Z,13.41
2017-05-19T07:56:11.931Z,13.39
2017-05-19T07:56:52.425Z,13.39
2017-05-19T07:57:33.046Z,13.36
2017-05-19T07:58:13.561Z,13.45
2017-05-19T08:00:01.088Z,13.3
2017-05-19T08:00:41.528Z,13.3
2017-05-19T08:01:22.072Z,13.36
2017-05-19T08:03:20.063Z,13.23
2017-05-19T08:04:00.382Z,13.15
2017-05-19T08:04:40.864Z,13.22
2017-05-19T08:05:21.363Z,13.1
2017-05-19T08:06:01.886Z,13.14
2017-05-19T08:06:42.387Z,13.15
2017-05-19T08:07:22.883Z,13.2
2017-05-19T08:09:35.697Z,13.08
2017-05-19T08:10:16.013Z,13.07
2017-05-19T08:10:56.507Z,13.07
2017-05-19T08:11:37.012Z,12.97
2017-05-19T08:12:17.482Z,13.12
2017-05-19T08:12:58.008Z,13.11
2017-05-19T08:13:38.512Z,13.07
2017-05-19T08:14:18.959Z,13.04
2017-05-19T08:14:59.485Z,13.04
2017-05-19T08:15:39.913Z,12.96
2017-05-19T08:16:20.397Z,12.97
2017-05-19T08:17:00.834Z,13.04
2017-05-19T08:17:41.326Z,13.08
2017-05-19T08:18:21.863Z,13.05
2017-05-19T08:19:02.370Z,13
2017-05-19T08:19:42.801Z,13.05
2017-05-19T08:20:23.327Z,13.05
2017-05-19T08:21:03.777Z,13.08
2017-05-19T08:21:44.236Z,13.07
2017-05-19T08:23:36.825Z,13.08
2017-05-19T08:24:17.290Z,13.1
2017-05-19T08:24:57.786Z,13.05
2017-05-19T08:25:38.257Z,13.14
2017-05-19T08:26:18.755Z,13.2
2017-05-19T08:26:59.271Z,13.11
2017-05-19T08:27:39.760Z,13.17
2017-05-19T08:28:20.214Z,13.14
2017-05-19T08:30:18.119Z,13.1
2017-05-19T08:30:58.391Z,13.15
2017-05-19T08:31:38.930Z,13.05
2017-05-19T08:32:19.451Z,13.08
2017-05-19T08:32:59.893Z,13.1
2017-05-19T08:33:41.148Z,13.12
2017-05-19T08:34:21.930Z,13.07
2017-05-19T08:35:02.545Z,13
2017-05-19T08:35:43.063Z,13.04
2017-05-19T08:36:23.591Z,13.08
2017-05-19T08:37:04.106Z,13.1
2017-05-19T08:37:44.654Z,13.14
2017-05-19T08:39:42.442Z,13.28
2017-05-19T08:40:22.931Z,13.32
2017-05-19T08:41:03.424Z,13.32
2017-05-19T08:41:43.992Z,13.22
2017-05-19T08:42:24.440Z,13.19
2017-05-19T08:43:05.080Z,13.26
2017-05-19T08:43:45.580Z,13.32
2017-05-19T08:44:26.053Z,13.28
2017-05-19T08:46:23.671Z,13.6
2017-05-19T08:47:04.158Z,13.64
2017-05-19T08:47:44.645Z,13.63
2017-05-19T08:48:25.120Z,13.57
2017-05-19T08:49:05.625Z,13.44
2017-05-19T08:49:46.091Z,13.48
2017-05-19T08:51:58.921Z,13.52
2017-05-19T08:52:39.351Z,13.55
2017-05-19T08:53:19.849Z,13.49
2017-05-19T08:54:00.372Z,13.46
2017-05-19T08:54:40.873Z,13.59
2017-05-19T08:55:21.360Z,13.67
2017-05-19T08:57:34.107Z,13.57
2017-05-19T08:58:14.572Z,13.62
2017-05-19T08:58:55.074Z,13.57
2017-05-19T08:59:35.498Z,13.69
2017-05-19T09:00:15.967Z,13.6
2017-05-19T09:00:56.457Z,13.14
2017-05-19T09:02:49.364Z,13.3
2017-05-19T09:03:29.522Z,13.25
2017-05-19T09:04:09.973Z,13.41
2017-05-19T09:06:22.770Z,13.33
2017-05-19T09:07:03.172Z,13.33
2017-05-19T09:07:43.626Z,13.36
2017-05-19T09:08:24.074Z,13.29
2017-05-19T09:09:04.545Z,13.33
2017-05-19T09:09:45.021Z,13.36
2017-05-19T09:10:25.534Z,13.25
2017-05-19T09:11:06.023Z,13.29
2017-05-19T09:11:46.510Z,13.33
2017-05-19T09:13:39.126Z,13.36
2017-05-19T09:14:19.502Z,13.42
2017-05-19T09:14:59.958Z,13.45
2017-05-19T09:15:40.422Z,13.38
2017-05-19T09:16:20.922Z,13.36
2017-05-19T09:17:01.350Z,13.38
2017-05-19T09:17:41.837Z,13.44
2017-05-19T09:18:22.443Z,13.44
2017-05-19T09:19:02.971Z,13.41
2017-05-19T09:19:43.387Z,13.44
2017-05-19T09:20:23.832Z,13.44
2017-05-19T09:22:01.681Z,13.32
2017-05-19T09:22:42.039Z,13.41
2017-05-19T09:23:22.501Z,13.39
2017-05-19T09:24:02.931Z,13.42
2017-05-19T09:24:43.409Z,13.39
2017-05-19T09:25:23.872Z,13.42